»·PEaware :: N8D KLBF-KBJC

N8D :: KLBF-KBJC

FLIGHT INFORMATION

Flight Status: Arrived
Operator: Privately registered:
United States
More flights under this callsign
Pilot: Drew L. (13237)
Aircraft: PILATUS PC-12 EAGLE
(PC12)
More flights by this aircraft type
Origin: KLBF North Platte Regl-Bird
United States
Destination: KBJC Jeffco
United States
More flights between these airports :: More routes between these airports
Route: GGF
File this flight plan on PilotEdge
Remarks:
Altitude:
(Current/Filed)
24,000ft
Speed:
(Current/Filed)
0kts
Departed: 04-Jun-18 09:39 PM
Arrived: 04-Jun-18 10:41 PM
Distance/Time
Traveled:
215nm/1:02
Distance/Time
To Go:
Arrived

Flight Plot

Page will automatically refresh every two minutes.

Flight plan parsing failed; only flown route is shown


Map Options




Map Legend


Flown Route
Filed Route
Departure Airport
Arrival Airport
Navaid (VOR, NDB)
Fix

Horizontal Profiles

Position Reports

Time Latitude Longitude Heading Altitude Ground
Speed
04-Jun-18 21:35 41.119515 -100.666968 305 2781ft 0kts
04-Jun-18 21:36 41.119515 -100.666968 305 2781ft 0kts
04-Jun-18 21:37 41.119515 -100.666968 305 2781ft 0kts
04-Jun-18 21:38 41.119515 -100.666968 305 2781ft 0kts
04-Jun-18 21:39 41.128403 -100.683639 299 3095ft 127kts
04-Jun-18 21:40 41.117208 -100.724790 242 5069ft 128kts
04-Jun-18 21:41 41.105020 -100.768946 251 7042ft 130kts
04-Jun-18 21:42 41.094071 -100.814850 252 8948ft 133kts
04-Jun-18 21:43 41.082896 -100.861507 254 10780ft 136kts
04-Jun-18 21:44 41.071345 -100.909609 256 12537ft 140kts
04-Jun-18 21:45 41.059532 -100.958661 257 14268ft 142kts
04-Jun-18 21:46 41.047493 -101.008552 257 15933ft 144kts
04-Jun-18 21:47 41.035208 -101.059354 258 17522ft 147kts
04-Jun-18 21:48 41.022550 -101.111574 258 19028ft 152kts
04-Jun-18 21:49 41.009458 -101.165417 258 20478ft 156kts
04-Jun-18 21:50 40.995971 -101.220780 258 21873ft 160kts
04-Jun-18 21:51 40.982100 -101.277556 259 23210ft 164kts
04-Jun-18 21:52 40.970061 -101.326709 258 23976ft 185kts
04-Jun-18 21:53 40.948172 -101.414690 257 23978ft 238kts
04-Jun-18 21:54 40.927173 -101.500376 257 23976ft 246kts
04-Jun-18 21:55 40.906056 -101.585872 256 23977ft 244kts
04-Jun-18 21:56 40.888767 -101.655485 256 23973ft 243kts
04-Jun-18 21:57 40.867666 -101.740150 256 23972ft 243kts
04-Jun-18 21:58 40.845264 -101.824264 255 23978ft 243kts
04-Jun-18 21:59 40.819041 -101.922018 255 23995ft 242kts
04-Jun-18 22:00 40.796646 -102.005541 255 24015ft 242kts
04-Jun-18 22:01 40.777887 -102.075309 255 24016ft 242kts
04-Jun-18 22:02 40.755360 -102.158830 255 24016ft 242kts
04-Jun-18 22:03 40.732713 -102.242512 255 24016ft 242kts
04-Jun-18 22:04 40.706319 -102.339688 255 24016ft 242kts
04-Jun-18 22:05 40.687389 -102.409153 255 24015ft 242kts
04-Jun-18 22:06 40.664565 -102.492650 255 24015ft 242kts
04-Jun-18 22:07 40.641739 -102.575878 255 24015ft 242kts
04-Jun-18 22:08 40.619046 -102.658351 254 24017ft 242kts
04-Jun-18 22:09 40.596037 -102.741707 254 24018ft 243kts
04-Jun-18 22:10 40.572937 -102.825109 254 24014ft 243kts
04-Jun-18 22:11 40.549768 -102.908485 254 24011ft 243kts
04-Jun-18 22:12 40.526472 -102.992039 254 24008ft 243kts
04-Jun-18 22:13 40.503067 -103.075722 255 24008ft 245kts
04-Jun-18 22:14 40.479482 -103.159792 255 24008ft 247kts
04-Jun-18 22:15 40.455593 -103.244636 255 24014ft 248kts
04-Jun-18 22:16 40.431562 -103.329685 251 24022ft 248kts
04-Jun-18 22:17 40.407756 -103.413680 251 24018ft 244kts
04-Jun-18 22:18 40.384114 -103.496798 251 24026ft 242kts
04-Jun-18 22:19 40.360614 -103.579164 251 24033ft 241kts
04-Jun-18 22:20 40.337028 -103.661573 251 24037ft 241kts
04-Jun-18 22:21 40.313391 -103.743902 251 24037ft 242kts
04-Jun-18 22:22 40.289664 -103.826323 251 24037ft 242kts
04-Jun-18 22:23 40.265858 -103.908691 251 24037ft 242kts
04-Jun-18 22:24 40.242039 -103.990850 251 24036ft 242kts
04-Jun-18 22:25 40.218125 -104.073088 251 24036ft 242kts
04-Jun-18 22:26 40.194120 -104.155394 251 24036ft 242kts
04-Jun-18 22:27 40.171135 -104.235910 251 22529ft 236kts
04-Jun-18 22:28 40.148037 -104.315157 250 20656ft 230kts
04-Jun-18 22:29 40.125393 -104.392051 250 18837ft 225kts
04-Jun-18 22:30 40.103198 -104.467254 250 17058ft 220kts
04-Jun-18 22:31 40.081488 -104.540832 249 15319ft 215kts
04-Jun-18 22:32 40.060069 -104.613074 249 13615ft 211kts
04-Jun-18 22:33 40.041055 -104.676938 248 12113ft 209kts
04-Jun-18 22:34 40.020062 -104.746632 248 11158ft 204kts
04-Jun-18 22:35 39.999593 -104.815015 248 10221ft 201kts
04-Jun-18 22:36 39.979424 -104.882283 248 9311ft 198kts
04-Jun-18 22:37 39.959503 -104.948505 248 8456ft 194kts
04-Jun-18 22:38 39.940379 -105.012624 248 7078ft 189kts
04-Jun-18 22:39 39.929919 -105.070299 259 6765ft 115kts
04-Jun-18 22:40 39.918397 -105.106973 217 5820ft 106kts
04-Jun-18 22:41 39.909999 -105.114424 212 5673ft 0kts
04-Jun-18 22:42 39.909999 -105.114424 212 5673ft 0kts
04-Jun-18 22:43 39.909999 -105.114424 212 5673ft 0kts
04-Jun-18 22:44 39.909999 -105.114424 212 5673ft 0kts
04-Jun-18 22:45 39.909999 -105.114424 212 5673ft 0kts
04-Jun-18 22:46 39.909999 -105.114424 212 5673ft 0kts
04-Jun-18 22:47 39.909999 -105.114424 212 5673ft 0kts
04-Jun-18 22:48 39.909999 -105.114424 212 5673ft 0kts
04-Jun-18 22:49 39.909999 -105.114424 212 5673ft 0kts
04-Jun-18 22:50 39.909999 -105.114424 212 5673ft 0kts
04-Jun-18 22:51 39.909999 -105.114424 212 5673ft 0kts
04-Jun-18 22:52 39.909999 -105.114424 212 5673ft 0kts
04-Jun-18 22:53 39.909999 -105.114424 212 5673ft 0kts
04-Jun-18 22:54 39.909999 -105.114424 212 5673ft 0kts
04-Jun-18 22:55 39.909999 -105.114424 212 5673ft 0kts

Navigation Log

Ident Type
Flight plan parsing failed, navigation log unavailable